Time;durP1;ratioP1;P1;durP2;ratioP2;P2;SDS_P1;SDS_P2;PMS_P1;PMS_P2;Temp;Humidity;BMP_temperature;BMP_pressure;BME280_temperature;BME280_humidity;BME280_pressure;Samples;Min_cycle;Max_cycle;Signal;HPM_P1;HPM_P2
2022/03/22 00:00:09;;;;;;;22.23;17.10;;;10.60;67.40;;;;;;10902605;32;20047;-70
2022/03/22 00:06:14;;;;;;;29.12;19.45;;;10.60;67.50;;;;;;10905636;32;20020;-70
2022/03/22 00:12:16;;;;;;;25.42;19.17;;;10.50;68.10;;;;;;10906358;32;20374;-70
2022/03/22 00:18:19;;;;;;;24.63;17.70;;;10.50;68.00;;;;;;10906143;32;20042;-70
2022/03/22 00:24:21;;;;;;;25.37;19.12;;;10.50;68.40;;;;;;10906216;32;20019;-70
2022/03/22 00:30:28;;;;;;;19.55;14.73;;;10.30;69.20;;;;;;10905815;32;20396;-70
2022/03/22 00:36:31;;;;;;;18.92;16.52;;;10.20;70.20;;;;;;10905698;32;20031;-70
2022/03/22 00:42:33;;;;;;;20.67;16.55;;;10.20;69.50;;;;;;10905622;32;20058;-70
2022/03/22 00:48:35;;;;;;;26.48;18.37;;;10.30;68.00;;;;;;10905517;32;20532;-70
2022/03/22 00:54:37;;;;;;;16.92;13.25;;;10.30;68.00;;;;;;10905441;32;20429;-70
2022/03/22 01:00:40;;;;;;;15.35;11.57;;;10.30;67.80;;;;;;10902363;32;20031;-71
2022/03/22 01:06:41;;;;;;;17.20;13.85;;;10.20;68.10;;;;;;10911769;32;20027;-70
2022/03/22 01:12:45;;;;;;;21.23;13.02;;;10.10;68.40;;;;;;10912388;32;20081;-70
2022/03/22 01:18:47;;;;;;;18.45;13.43;;;10.10;68.40;;;;;;10911870;32;20046;-70
2022/03/22 01:24:52;;;;;;;15.60;12.68;;;10.20;68.00;;;;;;10912177;32;20023;-70
2022/03/22 01:30:54;;;;;;;17.62;12.20;;;10.20;68.00;;;;;;10907848;32;20020;-71
2022/03/22 01:36:56;;;;;;;13.10;10.95;;;10.10;67.80;;;;;;10911689;32;20051;-71
2022/03/22 01:42:59;;;;;;;11.23;8.30;;;10.10;67.70;;;;;;10911530;32;20351;-71
2022/03/22 01:49:02;;;;;;;10.73;6.95;;;9.80;68.40;;;;;;10911338;32;20438;-70
2022/03/22 01:55:06;;;;;;;14.60;8.18;;;9.80;68.90;;;;;;10911087;32;20023;-70
2022/03/22 02:07:31;;;;;;;12.15;8.25;;;9.90;68.80;;;;;;10910652;32;20050;-70
2022/03/22 02:13:34;;;;;;;9.43;7.60;;;9.90;69.10;;;;;;10909716;32;20039;-70
2022/03/22 02:19:40;;;;;;;10.25;6.45;;;9.80;69.00;;;;;;10910316;32;20111;-70
2022/03/22 02:25:42;;;;;;;11.00;4.82;;;9.70;69.00;;;;;;10910038;32;20043;-71
2022/03/22 02:31:45;;;;;;;8.68;5.00;;;9.70;69.30;;;;;;10907267;32;20046;-71
2022/03/22 02:37:47;;;;;;;15.27;6.03;;;9.60;69.50;;;;;;10909534;32;20070;-70
2022/03/22 02:43:50;;;;;;;9.63;6.22;;;9.60;69.80;;;;;;10896049;32;20023;-70
2022/03/22 02:49:53;;;;;;;10.52;7.15;;;9.60;69.60;;;;;;10909097;32;20031;-70
2022/03/22 02:55:55;;;;;;;10.20;6.43;;;9.60;69.70;;;;;;10908885;32;20050;-71
2022/03/22 03:01:58;;;;;;;8.45;5.68;;;9.50;69.80;;;;;;10904430;32;20027;-71
2022/03/22 03:08:00;;;;;;;11.52;5.95;;;9.40;70.00;;;;;;10908260;32;20050;-70
2022/03/22 03:20:23;;;;;;;6.93;4.85;;;9.30;70.40;;;;;;10907859;32;20027;-70
2022/03/22 03:26:25;;;;;;;6.20;3.55;;;9.20;70.60;;;;;;10906938;32;20027;-72
2022/03/22 03:32:27;;;;;;;8.93;5.25;;;9.20;70.90;;;;;;10907563;32;20069;-71
2022/03/22 03:38:29;;;;;;;7.32;4.75;;;9.20;70.90;;;;;;10907248;32;20036;-71
2022/03/22 03:50:55;;;;;;;7.87;4.12;;;9.20;70.80;;;;;;10906978;32;20035;-71
2022/03/22 03:56:57;;;;;;;7.80;4.70;;;9.10;70.80;;;;;;10906611;32;20082;-70
2022/03/22 04:03:00;;;;;;;10.20;5.43;;;9.20;71.00;;;;;;10906498;32;20054;-70
2022/03/22 04:09:05;;;;;;;10.15;7.10;;;9.10;71.10;;;;;;10902092;32;20024;-70
2022/03/22 04:15:07;;;;;;;10.55;5.03;;;9.20;71.00;;;;;;10902017;32;20059;-70
2022/03/22 04:21:11;;;;;;;8.20;5.53;;;9.10;70.90;;;;;;10905985;32;20046;-71
2022/03/22 04:33:36;;;;;;;10.30;7.03;;;8.90;71.40;;;;;;10905911;32;20019;-70
2022/03/22 04:39:40;;;;;;;9.25;5.32;;;8.80;71.40;;;;;;10905451;32;20027;-71
2022/03/22 04:45:42;;;;;;;7.53;4.12;;;8.70;71.70;;;;;;10905625;32;20050;-70
2022/03/22 04:58:05;;;;;;;6.80;5.12;;;8.50;72.10;;;;;;10905393;32;20050;-70
2022/03/22 05:04:27;;;;;;;10.88;6.25;;;8.50;71.80;;;;;;10905275;32;20023;-71
2022/03/22 05:10:35;;;;;;;11.32;7.22;;;8.40;71.30;;;;;;10905036;32;20031;-70
2022/03/22 05:16:39;;;;;;;10.27;6.70;;;8.20;71.00;;;;;;10905086;32;20386;-71
2022/03/22 05:22:42;;;;;;;8.85;5.25;;;8.20;70.60;;;;;;10891866;32;20027;-71
2022/03/22 05:28:44;;;;;;;7.22;4.87;;;8.20;71.30;;;;;;10904704;32;20337;-70
2022/03/22 05:34:47;;;;;;;11.70;7.75;;;8.20;71.20;;;;;;10904559;32;20035;-70
2022/03/22 05:41:21;;;;;;;12.60;6.72;;;8.10;71.20;;;;;;10904753;32;20392;-70
2022/03/22 05:47:24;;;;;;;12.10;7.85;;;8.10;71.30;;;;;;10904712;32;20046;-70
2022/03/22 05:53:37;;;;;;;10.13;6.65;;;8.20;70.40;;;;;;10909826;32;20049;-71
2022/03/22 05:59:39;;;;;;;11.25;7.37;;;8.30;70.10;;;;;;10910877;32;20031;-70
2022/03/22 06:05:42;;;;;;;12.10;7.10;;;8.50;70.30;;;;;;10910803;32;20024;-71
2022/03/22 06:11:44;;;;;;;11.75;7.20;;;8.50;70.60;;;;;;10910511;32;20418;-71
2022/03/22 06:17:49;;;;;;;10.75;7.90;;;8.70;70.30;;;;;;10896869;32;20384;-71
2022/03/22 06:23:52;;;;;;;13.75;9.80;;;8.90;70.00;;;;;;10909848;32;20023;-71
2022/03/22 06:29:54;;;;;;;17.27;10.75;;;9.10;69.70;;;;;;10909741;32;20023;-71
2022/03/22 06:35:57;;;;;;;16.80;10.63;;;9.30;69.00;;;;;;10909318;32;20054;-71
2022/03/22 06:41:59;;;;;;;13.73;8.10;;;9.30;68.80;;;;;;10893972;32;20031;-71
2022/03/22 06:48:02;;;;;;;14.95;8.80;;;9.20;69.30;;;;;;10871017;32;20028;-71
2022/03/22 06:54:04;;;;;;;15.13;8.32;;;9.30;69.70;;;;;;10870794;32;20054;-71
2022/03/22 07:00:09;;;;;;;13.65;7.43;;;9.60;69.10;;;;;;10870220;32;20404;-71
2022/03/22 07:06:12;;;;;;;15.15;8.02;;;9.80;69.30;;;;;;10884377;32;20035;-71
2022/03/22 07:12:14;;;;;;;18.33;9.18;;;10.10;68.80;;;;;;10906485;32;20046;-70
2022/03/22 07:18:17;;;;;;;12.55;7.97;;;10.30;68.80;;;;;;10896587;27;20085;-70
2022/03/22 07:24:19;;;;;;;10.77;6.45;;;10.50;68.90;;;;;;10903320;32;20070;-71
2022/03/22 07:30:21;;;;;;;10.90;7.82;;;10.60;68.80;;;;;;10893576;32;20019;-70
2022/03/22 07:36:24;;;;;;;19.30;10.05;;;10.60;66.90;;;;;;10906681;32;20023;-70
2022/03/22 07:42:29;;;;;;;13.43;6.95;;;10.60;68.00;;;;;;10906683;32;20015;-70
2022/03/22 07:48:32;;;;;;;11.77;8.30;;;10.60;67.90;;;;;;10893012;32;20301;-70
2022/03/22 07:54:35;;;;;;;30.55;10.70;;;10.70;67.60;;;;;;10905906;32;20023;-70
2022/03/22 08:00:41;;;;;;;11.88;7.47;;;10.70;66.90;;;;;;10905762;32;20035;-70
2022/03/22 08:06:43;;;;;;;10.15;6.07;;;10.90;67.80;;;;;;10902083;32;20053;-70
2022/03/22 08:12:46;;;;;;;8.98;5.78;;;11.00;66.80;;;;;;10905374;32;20332;-70
2022/03/22 08:18:48;;;;;;;16.77;7.70;;;11.20;68.10;;;;;;10892268;32;20019;-70
2022/03/22 08:24:52;;;;;;;9.40;5.87;;;11.30;67.90;;;;;;10901015;32;20028;-70
2022/03/22 08:30:54;;;;;;;14.73;8.63;;;11.30;65.80;;;;;;10905165;32;20023;-70
2022/03/22 08:36:56;;;;;;;12.95;6.40;;;11.50;66.60;;;;;;10904943;32;20066;-70
2022/03/22 08:43:01;;;;;;;11.32;8.43;;;11.50;65.10;;;;;;10900970;32;20027;-70
2022/03/22 08:49:04;;;;;;;10.20;5.10;;;11.50;64.30;;;;;;10900156;32;20031;-70
2022/03/22 08:55:11;;;;;;;10.70;7.00;;;11.40;62.40;;;;;;10904439;32;20059;-70
2022/03/22 09:01:13;;;;;;;15.68;9.35;;;11.60;64.20;;;;;;10900306;32;20035;-70
2022/03/22 09:07:16;;;;;;;13.80;6.87;;;11.70;64.60;;;;;;10902127;32;20078;-70
2022/03/22 09:13:19;;;;;;;16.97;11.10;;;11.70;62.00;;;;;;10900270;32;20061;-70
2022/03/22 09:19:21;;;;;;;13.62;8.70;;;11.90;64.00;;;;;;10904107;32;20028;-71
2022/03/22 09:25:23;;;;;;;12.82;8.75;;;11.90;61.40;;;;;;10907379;32;20027;-70
2022/03/22 09:31:32;;;;;;;14.93;4.87;;;12.00;60.60;;;;;;10910856;32;20046;-70
2022/03/22 09:37:42;;;;;;;23.55;8.13;;;12.00;59.10;;;;;;10910267;32;20441;-71
2022/03/22 09:43:47;;;;;;;20.35;8.32;;;12.10;61.30;;;;;;10909824;32;20015;-70
2022/03/22 09:49:49;;;;;;;24.92;9.75;;;12.30;59.90;;;;;;10909554;32;20050;-71
2022/03/22 09:55:51;;;;;;;13.05;8.20;;;12.50;61.00;;;;;;10909036;32;20046;-70
2022/03/22 10:01:59;;;;;;;11.93;8.10;;;12.60;58.40;;;;;;10909136;32;20042;-70
2022/03/22 10:08:35;;;;;;;14.25;8.43;;;12.70;56.80;;;;;;10895785;32;20042;-71
2022/03/22 10:14:40;;;;;;;17.50;10.32;;;12.70;53.70;;;;;;10909067;32;20066;-71
2022/03/22 10:20:43;;;;;;;12.65;9.77;;;12.80;52.50;;;;;;10908477;32;20380;-71
2022/03/22 10:26:46;;;;;;;10.10;7.82;;;13.00;50.90;;;;;;10908319;32;20050;-70
2022/03/22 10:32:52;;;;;;;15.18;9.88;;;13.20;51.30;;;;;;10907912;32;20372;-70
2022/03/22 10:39:09;;;;;;;16.33;12.37;;;13.40;51.60;;;;;;10903508;32;20043;-70
2022/03/22 10:45:23;;;;;;;14.23;11.50;;;13.50;50.80;;;;;;10870164;32;20027;-70
2022/03/22 10:51:32;;;;;;;14.68;9.40;;;13.70;49.30;;;;;;10852539;32;20055;-70
2022/03/22 10:57:37;;;;;;;13.80;8.57;;;13.80;49.90;;;;;;10870056;32;20042;-70
2022/03/22 11:03:40;;;;;;;13.35;7.18;;;14.10;48.60;;;;;;10852171;32;20035;-70
2022/03/22 11:09:48;;;;;;;13.25;9.82;;;14.20;48.60;;;;;;10869123;32;20024;-71
2022/03/22 11:15:57;;;;;;;12.35;9.82;;;14.70;49.90;;;;;;10868690;32;20027;-70
2022/03/22 11:22:08;;;;;;;13.25;7.90;;;15.00;47.80;;;;;;10869017;32;20019;-70
2022/03/22 11:28:16;;;;;;;16.27;10.52;;;15.20;47.60;;;;;;10869241;32;20391;-70
2022/03/22 11:34:20;;;;;;;12.60;9.30;;;15.50;45.90;;;;;;10868899;32;20023;-70
2022/03/22 11:46:44;;;;;;;18.37;11.75;;;16.10;46.70;;;;;;10867513;32;20016;-71
2022/03/22 11:52:48;;;;;;;12.60;8.38;;;16.20;45.80;;;;;;10867540;32;20019;-70
2022/03/22 11:58:56;;;;;;;17.27;12.63;;;16.30;44.00;;;;;;10867570;32;20411;-70
2022/03/22 12:05:01;;;;;;;14.68;10.48;;;16.50;45.00;;;;;;10867717;32;20024;-70
2022/03/22 12:11:04;;;;;;;17.25;10.70;;;16.60;44.40;;;;;;10867008;32;20038;-71
2022/03/22 12:17:06;;;;;;;15.43;8.15;;;16.60;43.30;;;;;;10881402;32;20054;-71
2022/03/22 12:23:08;;;;;;;12.25;8.55;;;16.70;43.40;;;;;;10901376;32;20050;-70
2022/03/22 12:29:10;;;;;;;15.13;9.70;;;16.80;43.20;;;;;;10891916;32;20053;-70
2022/03/22 12:36:08;;;;;;;15.40;11.95;;;17.00;43.60;;;;;;10905189;32;20031;-70
2022/03/22 12:42:43;;;;;;;8.23;6.35;;;17.20;43.50;;;;;;10901772;32;20058;-70
2022/03/22 12:48:50;;;;;;;11.85;9.35;;;17.00;42.40;;;;;;10891249;32;20418;-70
2022/03/22 12:54:56;;;;;;;15.87;8.47;;;17.30;42.10;;;;;;10903062;32;20060;-70
2022/03/22 13:00:58;;;;;;;10.23;6.68;;;17.30;41.40;;;;;;10909126;32;20028;-70
2022/03/22 13:07:09;;;;;;;18.75;8.50;;;17.50;42.50;;;;;;10912106;32;20058;-71
2022/03/22 13:13:18;;;;;;;12.57;8.43;;;17.50;41.90;;;;;;10911964;32;20027;-71
2022/03/22 13:19:21;;;;;;;12.40;8.55;;;17.70;41.50;;;;;;10911213;32;20062;-71
2022/03/22 13:25:35;;;;;;;13.45;9.90;;;17.70;40.60;;;;;;10911846;32;20054;-71
2022/03/22 13:31:38;;;;;;;15.88;11.63;;;17.50;40.90;;;;;;10911501;32;20386;-70
2022/03/22 13:37:52;;;;;;;6.97;5.10;;;17.60;40.00;;;;;;10910907;32;20050;-71
2022/03/22 13:43:54;;;;;;;11.77;8.02;;;17.60;38.30;;;;;;10911230;32;20024;-71
2022/03/22 13:49:59;;;;;;;17.05;12.02;;;17.70;39.20;;;;;;10910791;32;20352;-71
2022/03/22 13:56:01;;;;;;;8.35;7.20;;;17.80;39.20;;;;;;10906654;32;20023;-70
2022/03/22 14:02:05;;;;;;;10.38;8.00;;;17.90;40.80;;;;;;10910714;32;20395;-70
2022/03/22 14:08:08;;;;;;;12.90;8.88;;;18.10;40.80;;;;;;10910441;32;20062;-70
2022/03/22 14:14:51;;;;;;;12.73;8.35;;;18.40;40.90;;;;;;10907897;32;20057;-70
2022/03/22 14:20:54;;;;;;;11.93;8.88;;;18.60;39.50;;;;;;10909585;32;20023;-71
2022/03/22 14:26:56;;;;;;;13.25;9.35;;;18.70;38.20;;;;;;10909942;32;20050;-70
2022/03/22 14:33:01;;;;;;;12.25;9.50;;;18.70;39.20;;;;;;10909383;32;20035;-70
2022/03/22 14:39:03;;;;;;;9.70;6.40;;;18.80;39.50;;;;;;10911790;32;20023;-70
2022/03/22 14:45:08;;;;;;;12.93;8.80;;;19.00;38.50;;;;;;10911307;32;20050;-71
2022/03/22 14:51:10;;;;;;;9.10;6.37;;;19.20;38.90;;;;;;10908687;32;20430;-71
2022/03/22 15:03:34;;;;;;;9.32;6.10;;;19.50;40.40;;;;;;10905869;32;20123;-71
2022/03/22 15:09:39;;;;;;;11.55;6.32;;;19.90;41.30;;;;;;10907388;32;20031;-71
2022/03/22 15:15:42;;;;;;;6.68;4.30;;;20.30;41.30;;;;;;10907742;32;20415;-71
2022/03/22 15:21:45;;;;;;;8.60;4.50;;;20.40;40.20;;;;;;10419643;27;14516206;-70
2022/03/22 15:27:48;;;;;;;10.73;6.50;;;20.60;39.90;;;;;;10860263;32;20337;-71
2022/03/22 15:33:50;;;;;;;9.02;5.93;;;21.10;38.50;;;;;;10865316;32;20024;-71
2022/03/22 15:39:52;;;;;;;13.40;7.15;;;21.60;39.10;;;;;;10865350;32;20036;-71
2022/03/22 15:45:54;;;;;;;7.45;5.55;;;22.30;37.20;;;;;;10865726;32;20019;-71
2022/03/22 15:52:18;;;;;;;7.55;3.50;;;22.90;37.00;;;;;;10913069;32;20027;-71
2022/03/22 15:58:20;;;;;;;8.52;5.95;;;23.30;36.60;;;;;;10926413;32;20407;-71
2022/03/22 16:04:22;;;;;;;8.00;4.97;;;23.70;35.80;;;;;;10943168;32;20030;-71
2022/03/22 16:10:25;;;;;;;6.22;3.80;;;24.00;36.90;;;;;;10930201;32;20041;-71
2022/03/22 16:16:28;;;;;;;7.97;5.35;;;24.40;36.80;;;;;;10939154;32;20737;-70
2022/03/22 16:22:31;;;;;;;6.28;4.85;;;24.90;35.70;;;;;;10939223;32;20026;-70
2022/03/22 16:28:33;;;;;;;5.07;3.60;;;25.10;36.90;;;;;;10953402;32;20026;-69
2022/03/22 16:40:58;;;;;;;6.53;3.80;;;25.40;36.30;;;;;;10980579;32;20343;-70
2022/03/22 16:47:07;;;;;;;5.40;3.72;;;24.50;37.70;;;;;;10980503;32;20331;-71
2022/03/22 16:53:09;;;;;;;6.03;3.20;;;23.10;39.90;;;;;;10980339;32;20030;-71
2022/03/22 16:59:12;;;;;;;6.25;4.18;;;22.50;41.10;;;;;;10975955;32;20288;-71
2022/03/22 17:05:14;;;;;;;7.25;3.90;;;21.90;41.20;;;;;;10980231;32;20031;-71
2022/03/22 17:11:16;;;;;;;6.65;4.35;;;21.40;42.70;;;;;;10979976;32;20027;-71
2022/03/22 17:17:19;;;;;;;5.57;3.72;;;20.50;43.60;;;;;;10962282;32;20042;-71
2022/03/22 17:23:22;;;;;;;8.75;5.05;;;19.50;44.70;;;;;;10966255;32;20050;-71
2022/03/22 17:29:25;;;;;;;8.55;4.78;;;18.70;45.60;;;;;;10979771;32;20100;-71
2022/03/22 17:35:27;;;;;;;7.70;5.85;;;18.20;47.20;;;;;;10952490;32;20057;-71
2022/03/22 17:41:30;;;;;;;10.57;6.57;;;17.90;48.20;;;;;;10898943;32;20027;-71
2022/03/22 17:47:32;;;;;;;7.53;5.82;;;17.50;49.00;;;;;;10915117;32;20437;-71
2022/03/22 17:53:35;;;;;;;10.57;7.05;;;17.10;49.60;;;;;;10942277;32;20053;-71
2022/03/22 17:59:37;;;;;;;11.15;7.97;;;16.80;50.20;;;;;;10948305;32;20053;-71
2022/03/22 18:05:44;;;;;;;18.15;10.00;;;16.70;50.80;;;;;;10944455;32;20026;-70
2022/03/22 18:11:52;;;;;;;12.57;10.07;;;16.60;51.60;;;;;;10933809;32;20391;-70
2022/03/22 18:17:56;;;;;;;14.27;9.57;;;16.50;52.10;;;;;;10946170;32;20030;-70
2022/03/22 18:23:58;;;;;;;12.15;10.10;;;16.20;52.70;;;;;;10946935;32;20409;-70
2022/03/22 18:30:02;;;;;;;13.80;9.52;;;16.00;53.60;;;;;;10942689;32;20053;-70
2022/03/22 18:36:07;;;;;;;18.73;11.80;;;15.90;54.20;;;;;;10946568;32;20026;-70
2022/03/22 18:42:09;;;;;;;14.73;9.85;;;15.90;54.80;;;;;;10946522;32;20023;-70
2022/03/22 18:48:12;;;;;;;18.02;10.48;;;15.70;54.70;;;;;;10946477;32;20019;-70
2022/03/22 18:54:14;;;;;;;11.90;8.52;;;15.70;55.20;;;;;;10941792;32;20023;-71
2022/03/22 19:00:18;;;;;;;15.10;11.23;;;15.50;55.60;;;;;;10945356;32;20046;-71
2022/03/22 19:06:40;;;;;;;12.75;9.13;;;15.40;55.90;;;;;;10908399;32;20031;-71
2022/03/22 19:12:42;;;;;;;11.50;9.85;;;15.20;56.20;;;;;;10907336;32;20305;-70
2022/03/22 19:18:45;;;;;;;18.33;13.18;;;15.00;56.50;;;;;;10915027;32;20038;-70
2022/03/22 19:24:49;;;;;;;16.83;13.73;;;14.80;57.10;;;;;;10944697;32;20027;-70
2022/03/22 19:37:14;;;;;;;23.65;13.60;;;14.40;57.80;;;;;;10944625;32;20027;-70
2022/03/22 19:43:17;;;;;;;20.05;13.43;;;14.40;58.10;;;;;;10940121;32;20049;-70
2022/03/22 19:49:19;;;;;;;17.48;11.95;;;14.20;58.20;;;;;;10939515;32;20053;-70
2022/03/22 19:55:23;;;;;;;17.73;12.55;;;14.10;58.20;;;;;;10930309;32;20054;-70
2022/03/22 20:01:27;;;;;;;17.67;12.27;;;13.90;58.60;;;;;;10943588;32;20023;-70
2022/03/22 20:07:28;;;;;;;15.45;12.52;;;13.80;59.00;;;;;;10942585;32;20053;-70
2022/03/22 20:13:31;;;;;;;15.88;11.20;;;13.80;59.10;;;;;;10943276;32;20049;-70
2022/03/22 20:19:43;;;;;;;22.30;15.77;;;13.90;59.20;;;;;;10942397;32;20030;-70
2022/03/22 20:25:47;;;;;;;19.05;14.38;;;13.90;59.30;;;;;;10929289;32;20019;-70
2022/03/22 20:31:49;;;;;;;19.60;14.80;;;13.70;59.50;;;;;;10942193;32;20057;-70
2022/03/22 20:37:52;;;;;;;21.77;16.48;;;13.50;59.90;;;;;;10942341;32;20050;-70
2022/03/22 20:43:54;;;;;;;23.58;15.93;;;13.50;60.10;;;;;;10942125;32;20027;-70
2022/03/22 20:49:56;;;;;;;21.65;16.27;;;13.40;60.20;;;;;;10942363;32;20031;-70
2022/03/22 21:02:20;;;;;;;33.70;17.40;;;13.30;60.50;;;;;;10941940;32;20050;-70
2022/03/22 21:08:25;;;;;;;21.10;15.70;;;13.30;60.50;;;;;;10941538;32;20069;-70
2022/03/22 21:14:27;;;;;;;32.33;16.98;;;13.30;60.70;;;;;;10941745;32;20055;-70
2022/03/22 21:20:30;;;;;;;32.72;21.95;;;13.20;60.70;;;;;;10944099;32;20027;-70
2022/03/22 21:26:32;;;;;;;25.20;18.77;;;13.10;60.80;;;;;;10948995;32;20422;-70
2022/03/22 21:32:34;;;;;;;23.35;15.82;;;13.00;59.80;;;;;;10948722;32;20058;-70
2022/03/22 21:38:36;;;;;;;16.77;13.70;;;12.80;60.40;;;;;;10950109;32;20053;-70
2022/03/22 21:44:47;;;;;;;21.27;14.70;;;12.80;61.00;;;;;;10948407;32;20050;-70
2022/03/22 21:50:49;;;;;;;20.40;15.10;;;12.70;61.20;;;;;;10934769;32;20038;-70
2022/03/22 21:56:55;;;;;;;19.00;13.02;;;12.60;61.60;;;;;;10948079;32;20039;-70
2022/03/22 22:02:58;;;;;;;23.90;17.15;;;12.50;61.90;;;;;;10930468;32;20411;-70
2022/03/22 22:09:00;;;;;;;22.10;17.17;;;12.60;61.70;;;;;;10934446;32;20045;-70
2022/03/22 22:15:04;;;;;;;19.08;15.77;;;12.50;61.90;;;;;;10947540;32;20409;-70
2022/03/22 22:21:06;;;;;;;22.23;16.40;;;12.30;62.20;;;;;;10933915;32;20022;-70
2022/03/22 22:27:08;;;;;;;23.55;17.10;;;12.20;62.50;;;;;;10947202;32;20077;-71
2022/03/22 22:39:31;;;;;;;26.12;18.33;;;12.00;63.00;;;;;;10946570;32;20054;-70
2022/03/22 22:45:33;;;;;;;18.98;15.07;;;11.70;63.10;;;;;;10946503;32;20027;-70
2022/03/22 22:51:36;;;;;;;25.60;17.70;;;11.40;63.50;;;;;;10933039;32;20049;-71
2022/03/22 22:57:38;;;;;;;24.02;16.15;;;11.60;63.50;;;;;;10945805;32;20065;-70
2022/03/22 23:03:41;;;;;;;25.98;18.45;;;11.60;63.60;;;;;;10942071;32;20320;-70
2022/03/22 23:16:04;;;;;;;20.90;16.92;;;11.70;63.60;;;;;;10940783;32;20031;-70
2022/03/22 23:22:06;;;;;;;21.33;16.40;;;11.50;63.70;;;;;;10908912;27;20031;-70
2022/03/22 23:28:11;;;;;;;19.70;15.40;;;11.60;63.90;;;;;;10907044;32;20316;-70
2022/03/22 23:34:13;;;;;;;20.50;14.60;;;11.20;63.80;;;;;;10893580;32;20062;-71
2022/03/22 23:40:16;;;;;;;21.52;17.27;;;11.10;64.60;;;;;;10906840;32;20050;-71
2022/03/22 23:46:18;;;;;;;30.52;21.12;;;10.90;64.70;;;;;;10906728;32;20020;-71
2022/03/22 23:52:20;;;;;;;23.27;18.62;;;10.90;65.00;;;;;;10906496;32;20061;-71
2022/03/22 23:58:22;;;;;;;23.55;18.60;;;10.90;64.80;;;;;;10906260;32;20023;-71
